Time;durP1;ratioP1;P1;durP2;ratioP2;P2;SDS_P1;SDS_P2;PMS_P1;PMS_P2;Temp;Humidity;BMP_temperature;BMP_pressure;BME280_temperature;BME280_humidity;BME280_pressure;Samples;Min_cycle;Max_cycle;Signal;HPM_P1;HPM_P2
2023/11/03 00:01:33;;;;;;;2.77;2.60;;;11.30;99.90;;;;;;5053228;28;20170;-71
2023/11/03 00:03:59;;;;;;;5.17;3.00;;;11.30;99.90;;;;;;5052989;28;20733;-71
2023/11/03 00:06:24;;;;;;;5.27;2.97;;;11.30;99.90;;;;;;5052466;28;20269;-71
2023/11/03 00:08:50;;;;;;;3.03;2.77;;;11.30;99.90;;;;;;5052998;28;20648;-71
2023/11/03 00:11:16;;;;;;;3.40;3.10;;;11.30;99.90;;;;;;5052987;28;20172;-71
2023/11/03 00:13:42;;;;;;;4.10;3.20;;;11.30;99.90;;;;;;5053052;28;20194;-71
2023/11/03 00:16:08;;;;;;;2.70;2.60;;;11.30;99.90;;;;;;5052601;28;20679;-71
2023/11/03 00:18:34;;;;;;;3.30;3.00;;;11.30;99.90;;;;;;5052802;28;20184;-70
2023/11/03 00:21:00;;;;;;;4.70;2.87;;;11.30;99.90;;;;;;5052712;28;20171;-70
2023/11/03 00:23:26;;;;;;;3.77;3.00;;;11.30;99.90;;;;;;5052727;28;20206;-69
2023/11/03 00:25:51;;;;;;;3.10;2.90;;;11.30;99.90;;;;;;5052690;28;20209;-71
2023/11/03 00:28:17;;;;;;;4.87;3.20;;;11.30;99.90;;;;;;5052669;28;20167;-70
2023/11/03 00:30:43;;;;;;;5.77;2.70;;;11.30;99.90;;;;;;5052558;28;20173;-70
2023/11/03 00:33:09;;;;;;;3.63;2.80;;;11.30;99.90;;;;;;5052472;28;20173;-71
2023/11/03 00:35:34;;;;;;;5.00;3.23;;;11.30;99.90;;;;;;5052387;28;20226;-70
2023/11/03 00:38:00;;;;;;;3.67;2.73;;;11.30;99.90;;;;;;5052431;28;20549;-69
2023/11/03 00:40:26;;;;;;;3.33;3.00;;;11.20;99.90;;;;;;5052227;28;20548;-70
2023/11/03 00:42:51;;;;;;;3.47;3.13;;;11.20;99.90;;;;;;5052381;28;20174;-70
2023/11/03 00:45:17;;;;;;;3.50;3.03;;;11.20;99.90;;;;;;5051925;28;20193;-71
2023/11/03 00:47:43;;;;;;;3.63;3.17;;;11.20;99.90;;;;;;5052234;28;20178;-71
2023/11/03 00:50:09;;;;;;;2.83;2.63;;;11.20;99.90;;;;;;5052292;28;20171;-69
2023/11/03 00:52:35;;;;;;;6.40;3.00;;;11.20;99.90;;;;;;5052290;28;20173;-70
2023/11/03 00:55:06;;;;;;;4.17;3.43;;;11.20;99.90;;;;;;5051923;28;20680;-71
2023/11/03 00:57:32;;;;;;;3.40;3.00;;;11.20;99.90;;;;;;5051895;28;20213;-69
2023/11/03 00:59:58;;;;;;;3.27;3.03;;;11.20;99.90;;;;;;5052139;28;20264;-70
2023/11/03 01:02:23;;;;;;;3.33;3.13;;;11.10;99.90;;;;;;5052064;28;20171;-72
2023/11/03 01:04:49;;;;;;;3.80;3.20;;;11.10;99.90;;;;;;5051736;28;20248;-70
2023/11/03 01:07:14;;;;;;;3.20;2.80;;;11.00;99.90;;;;;;5051794;28;20228;-72
2023/11/03 01:09:41;;;;;;;3.57;3.07;;;11.00;99.90;;;;;;5051939;28;20648;-71
2023/11/03 01:12:06;;;;;;;3.50;3.20;;;10.90;99.90;;;;;;5051573;28;20261;-71
2023/11/03 01:14:32;;;;;;;2.93;2.80;;;10.90;99.90;;;;;;5051822;28;20290;-70
2023/11/03 01:16:58;;;;;;;3.73;3.00;;;10.90;99.90;;;;;;5033488;28;20198;-70
2023/11/03 01:19:24;;;;;;;3.40;3.00;;;10.90;99.90;;;;;;5051624;28;20189;-71
2023/11/03 01:21:49;;;;;;;3.27;2.97;;;10.90;99.90;;;;;;5051642;28;20175;-71
2023/11/03 01:24:15;;;;;;;3.90;3.27;;;10.90;99.90;;;;;;5051549;28;20606;-71
2023/11/03 01:26:41;;;;;;;10.90;3.10;;;10.90;99.90;;;;;;5051279;28;20198;-72
2023/11/03 01:29:07;;;;;;;3.53;3.33;;;10.90;99.90;;;;;;5051386;28;20182;-71
2023/11/03 01:31:33;;;;;;;3.60;3.27;;;11.00;99.90;;;;;;5051851;28;20167;-71
2023/11/03 01:34:00;;;;;;;3.40;3.20;;;11.00;99.90;;;;;;5051432;28;20221;-71
2023/11/03 01:36:26;;;;;;;3.40;3.20;;;11.00;99.90;;;;;;5050889;28;20214;-71
2023/11/03 01:38:51;;;;;;;4.07;3.20;;;11.00;99.90;;;;;;5051055;28;20175;-70
2023/11/03 01:41:17;;;;;;;3.50;3.20;;;11.00;99.90;;;;;;5051285;28;20181;-71
2023/11/03 01:44:03;;;;;;;4.33;3.20;;;11.00;99.90;;;;;;5051281;28;20191;-70
2023/11/03 01:46:28;;;;;;;3.37;3.17;;;11.00;99.90;;;;;;5033276;28;20313;-70
2023/11/03 01:48:55;;;;;;;3.13;2.93;;;11.00;99.90;;;;;;5051207;28;20493;-71
2023/11/03 01:51:21;;;;;;;3.50;3.20;;;11.00;99.90;;;;;;5050373;28;20241;-71
2023/11/03 01:53:47;;;;;;;4.53;3.00;;;11.00;99.90;;;;;;5050998;28;20210;-70
2023/11/03 01:56:13;;;;;;;3.33;3.13;;;11.00;99.90;;;;;;5050884;28;20244;-71
2023/11/03 01:58:38;;;;;;;3.13;2.83;;;11.00;99.90;;;;;;5051331;28;20537;-70
2023/11/03 02:01:05;;;;;;;5.57;2.90;;;11.00;99.90;;;;;;5051073;28;20170;-69
2023/11/03 02:03:31;;;;;;;13.03;3.30;;;10.90;99.90;;;;;;5051081;28;20600;-70
2023/11/03 02:05:56;;;;;;;3.67;3.33;;;10.90;99.90;;;;;;5050799;28;20262;-70
2023/11/03 02:08:22;;;;;;;3.30;3.00;;;10.90;99.90;;;;;;5051083;28;20171;-70
2023/11/03 02:10:47;;;;;;;2.90;2.70;;;10.90;99.90;;;;;;5050957;28;20163;-71
2023/11/03 02:13:13;;;;;;;2.83;2.67;;;10.90;99.90;;;;;;5051077;28;20170;-70
2023/11/03 02:15:39;;;;;;;6.10;2.87;;;10.90;99.90;;;;;;5050767;28;20564;-70
2023/11/03 02:18:10;;;;;;;3.17;2.87;;;10.90;99.90;;;;;;5051053;28;20285;-69
2023/11/03 02:20:36;;;;;;;2.90;2.70;;;10.90;99.90;;;;;;5050852;28;20170;-69
2023/11/03 02:23:02;;;;;;;3.00;2.77;;;10.90;99.90;;;;;;5050478;28;20221;-69
2023/11/03 02:25:27;;;;;;;3.73;2.97;;;10.90;99.90;;;;;;5050523;28;20838;-70
2023/11/03 02:27:53;;;;;;;4.77;2.97;;;10.80;99.90;;;;;;5051050;28;20178;-70
2023/11/03 02:30:19;;;;;;;3.80;3.00;;;10.80;99.90;;;;;;5050788;28;20711;-69
2023/11/03 02:32:44;;;;;;;3.67;3.40;;;10.80;99.90;;;;;;5050745;28;20644;-70
2023/11/03 02:35:10;;;;;;;4.03;3.30;;;10.80;99.90;;;;;;5050188;28;20278;-70
2023/11/03 02:37:35;;;;;;;3.77;3.30;;;10.80;99.90;;;;;;5050667;28;20209;-71
2023/11/03 02:40:01;;;;;;;4.57;3.37;;;10.80;99.90;;;;;;5050778;28;20209;-70
2023/11/03 02:42:27;;;;;;;3.33;3.13;;;10.80;99.90;;;;;;5050685;28;20674;-70
2023/11/03 02:44:52;;;;;;;4.00;3.60;;;10.80;99.90;;;;;;5050482;28;20277;-71
2023/11/03 02:47:18;;;;;;;4.63;4.30;;;10.80;99.90;;;;;;5050441;28;20257;-70
2023/11/03 02:49:43;;;;;;;6.47;4.37;;;10.80;99.90;;;;;;5050710;28;20183;-71
2023/11/03 02:52:09;;;;;;;3.97;3.40;;;10.70;99.90;;;;;;5050475;28;20174;-70
2023/11/03 02:54:35;;;;;;;3.40;3.10;;;10.70;99.90;;;;;;5050304;28;20598;-70
2023/11/03 02:57:01;;;;;;;5.37;3.93;;;10.70;99.90;;;;;;5050034;28;20202;-70
2023/11/03 02:59:26;;;;;;;3.80;3.50;;;10.70;99.90;;;;;;5050521;28;20272;-70
2023/11/03 03:01:52;;;;;;;4.80;3.30;;;10.70;99.90;;;;;;5050548;28;20752;-70
2023/11/03 03:04:17;;;;;;;3.43;3.17;;;10.70;99.90;;;;;;5054132;28;20190;-70
2023/11/03 03:06:45;;;;;;;3.37;3.13;;;10.70;99.90;;;;;;5054138;28;20229;-70
2023/11/03 03:09:12;;;;;;;6.50;3.60;;;10.80;99.90;;;;;;5054087;28;20171;-69
2023/11/03 03:11:38;;;;;;;5.33;3.23;;;10.70;99.90;;;;;;5054170;28;20175;-70
2023/11/03 03:14:03;;;;;;;4.97;3.30;;;10.70;99.90;;;;;;5053754;28;20628;-70
2023/11/03 03:16:29;;;;;;;5.20;3.27;;;10.80;99.90;;;;;;5053718;28;20206;-70
2023/11/03 03:18:55;;;;;;;4.40;3.33;;;10.80;99.90;;;;;;5053905;28;20250;-70
2023/11/03 03:21:21;;;;;;;3.73;3.40;;;10.70;99.90;;;;;;5053590;28;20663;-70
2023/11/03 03:23:47;;;;;;;3.17;2.90;;;10.70;99.90;;;;;;5053746;28;20210;-69
2023/11/03 03:26:13;;;;;;;5.97;3.30;;;10.70;99.90;;;;;;5053482;28;20668;-72
2023/11/03 03:28:38;;;;;;;3.90;3.17;;;10.70;99.90;;;;;;5053679;28;20186;-71
2023/11/03 03:31:04;;;;;;;4.20;3.10;;;10.60;99.90;;;;;;5053835;28;20175;-71
2023/11/03 03:33:30;;;;;;;4.40;3.20;;;10.60;99.90;;;;;;5053718;28;20254;-71
2023/11/03 03:35:56;;;;;;;3.60;3.30;;;10.60;99.90;;;;;;5053673;28;20254;-71
2023/11/03 03:38:22;;;;;;;5.47;3.30;;;10.60;99.90;;;;;;5053754;28;20470;-72
2023/11/03 03:40:47;;;;;;;3.67;3.17;;;10.60;99.90;;;;;;5053926;28;20175;-71
2023/11/03 03:43:13;;;;;;;3.80;3.50;;;10.60;99.90;;;;;;5053508;28;20187;-72
2023/11/03 03:45:38;;;;;;;5.77;3.50;;;10.60;99.90;;;;;;5053927;28;20187;-71
2023/11/03 03:48:04;;;;;;;3.60;3.20;;;10.60;99.90;;;;;;5053710;28;20268;-71
2023/11/03 03:50:30;;;;;;;4.20;3.20;;;10.50;99.90;;;;;;5053749;28;20182;-71
2023/11/03 03:52:55;;;;;;;4.93;3.33;;;10.50;99.90;;;;;;5053503;28;20182;-71
2023/11/03 03:55:21;;;;;;;6.27;3.60;;;10.40;99.90;;;;;;5053215;28;20676;-69
2023/11/03 03:57:48;;;;;;;3.13;2.83;;;10.40;99.90;;;;;;5053443;28;20256;-70
2023/11/03 04:00:15;;;;;;;3.83;3.23;;;10.30;99.90;;;;;;5053581;28;20171;-70
2023/11/03 04:02:41;;;;;;;6.23;3.67;;;10.30;99.90;;;;;;5053351;28;20173;-71
2023/11/03 04:05:07;;;;;;;5.23;3.20;;;10.20;99.90;;;;;;5053016;28;20277;-69
2023/11/03 04:07:32;;;;;;;7.40;4.03;;;10.20;99.90;;;;;;5053208;28;20543;-70
2023/11/03 04:09:58;;;;;;;6.03;3.57;;;10.20;99.90;;;;;;5053289;28;20183;-70
2023/11/03 04:12:24;;;;;;;6.23;4.03;;;10.20;99.90;;;;;;5053019;28;20193;-70
2023/11/03 04:14:49;;;;;;;4.33;3.93;;;10.10;99.90;;;;;;5052342;28;20683;-70
2023/11/03 04:17:15;;;;;;;4.10;3.73;;;10.10;99.90;;;;;;5052653;28;20214;-70
2023/11/03 04:19:40;;;;;;;4.77;4.37;;;10.10;99.90;;;;;;5053082;28;20175;-70
2023/11/03 04:22:07;;;;;;;6.13;4.73;;;10.10;99.90;;;;;;5053072;28;20182;-70
2023/11/03 04:24:33;;;;;;;6.20;4.90;;;10.10;99.90;;;;;;5052570;28;20203;-72
2023/11/03 04:26:59;;;;;;;4.80;3.67;;;10.10;99.90;;;;;;5052525;28;20209;-71
2023/11/03 04:29:24;;;;;;;11.83;4.50;;;10.10;99.90;;;;;;5052824;28;20178;-71
2023/11/03 04:31:50;;;;;;;4.73;4.10;;;10.00;99.90;;;;;;5052770;28;20175;-71
2023/11/03 04:34:16;;;;;;;6.63;4.73;;;10.00;99.90;;;;;;5052638;28;20208;-71
2023/11/03 04:36:41;;;;;;;5.63;4.07;;;10.00;99.90;;;;;;5052589;28;20377;-72
2023/11/03 04:39:07;;;;;;;6.43;4.03;;;9.90;99.90;;;;;;5052019;28;20179;-71
2023/11/03 04:41:32;;;;;;;3.77;3.43;;;9.90;99.90;;;;;;5052859;28;20197;-71
2023/11/03 04:43:58;;;;;;;6.50;3.37;;;9.90;99.90;;;;;;5052594;28;20195;-71
2023/11/03 04:46:24;;;;;;;7.00;4.30;;;9.90;99.90;;;;;;5052083;28;20246;-70
2023/11/03 04:48:49;;;;;;;7.83;4.50;;;9.90;99.90;;;;;;5052503;28;20170;-71
2023/11/03 04:51:15;;;;;;;4.27;3.90;;;9.90;99.90;;;;;;5051981;28;20586;-72
2023/11/03 04:53:41;;;;;;;6.77;4.80;;;9.90;99.90;;;;;;5052144;28;20199;-72
2023/11/03 04:56:07;;;;;;;6.77;4.53;;;9.90;99.90;;;;;;5051727;28;20225;-71
2023/11/03 04:58:32;;;;;;;8.03;4.37;;;9.80;99.90;;;;;;5052498;28;20652;-72
2023/11/03 05:00:58;;;;;;;8.77;4.57;;;9.80;99.90;;;;;;5052218;28;20614;-72
2023/11/03 05:03:24;;;;;;;7.43;4.27;;;9.80;99.90;;;;;;5052097;28;20167;-71
2023/11/03 05:05:49;;;;;;;8.60;4.50;;;9.80;99.90;;;;;;5051991;28;20655;-71
2023/11/03 05:08:15;;;;;;;8.80;4.10;;;9.70;99.90;;;;;;5051994;28;20186;-70
2023/11/03 05:10:41;;;;;;;6.23;4.23;;;9.70;99.90;;;;;;5052213;28;20179;-71
2023/11/03 05:13:08;;;;;;;5.50;4.23;;;9.70;99.90;;;;;;5052001;28;20195;-70
2023/11/03 05:15:34;;;;;;;7.37;4.50;;;9.60;99.90;;;;;;5051689;28;20190;-71
2023/11/03 05:18:00;;;;;;;8.03;4.23;;;9.60;99.90;;;;;;5051947;28;20567;-71
2023/11/03 05:20:26;;;;;;;7.53;4.10;;;9.60;99.90;;;;;;5051806;28;20182;-70
2023/11/03 05:22:52;;;;;;;5.07;4.13;;;9.60;99.90;;;;;;5051863;28;20813;-70
2023/11/03 05:25:18;;;;;;;8.07;4.03;;;9.60;99.90;;;;;;5051326;28;20279;-70
2023/11/03 05:27:44;;;;;;;5.67;4.13;;;9.60;99.90;;;;;;5052162;28;20691;-72
2023/11/03 05:30:10;;;;;;;5.67;3.83;;;9.60;99.90;;;;;;5052296;28;20166;-71
2023/11/03 05:32:36;;;;;;;5.60;4.50;;;9.60;99.90;;;;;;5052218;28;20166;-71
2023/11/03 05:35:03;;;;;;;7.53;4.03;;;9.60;99.90;;;;;;5051734;28;20198;-71
2023/11/03 05:37:29;;;;;;;10.50;4.57;;;9.60;99.90;;;;;;5050694;28;20210;-70
2023/11/03 05:39:55;;;;;;;6.83;4.10;;;9.70;99.90;;;;;;5052095;28;20181;-70
2023/11/03 05:42:21;;;;;;;11.60;4.33;;;9.60;99.90;;;;;;5050863;28;20198;-70
2023/11/03 05:44:46;;;;;;;7.40;5.13;;;9.60;99.90;;;;;;5052177;28;20191;-71
2023/11/03 05:47:12;;;;;;;9.10;4.33;;;9.60;99.90;;;;;;5051859;28;20224;-71
2023/11/03 05:49:38;;;;;;;11.53;5.13;;;9.60;99.90;;;;;;5052195;28;20260;-70
2023/11/03 05:52:04;;;;;;;8.37;4.03;;;9.60;99.90;;;;;;5051797;28;20183;-70
2023/11/03 05:54:30;;;;;;;10.30;4.63;;;9.60;99.90;;;;;;5051848;28;20277;-71
2023/11/03 05:56:55;;;;;;;9.67;4.57;;;9.60;99.90;;;;;;5051551;28;20203;-70
2023/11/03 05:59:21;;;;;;;8.90;4.70;;;9.60;99.90;;;;;;5051586;28;20170;-72
2023/11/03 06:01:47;;;;;;;5.67;3.93;;;9.60;99.90;;;;;;5051903;28;20163;-72
2023/11/03 06:04:12;;;;;;;6.93;4.30;;;9.70;99.90;;;;;;5051647;28;20194;-72
2023/11/03 06:06:38;;;;;;;5.00;4.60;;;9.70;99.90;;;;;;5051867;28;20182;-71
2023/11/03 06:09:05;;;;;;;5.67;4.00;;;9.70;99.90;;;;;;5051644;28;20181;-71
2023/11/03 06:11:30;;;;;;;8.13;4.20;;;9.70;99.90;;;;;;5051851;28;20710;-71
2023/11/03 06:13:56;;;;;;;4.47;4.00;;;9.70;99.90;;;;;;5051685;28;20210;-72
2023/11/03 06:16:22;;;;;;;13.87;4.13;;;9.70;99.90;;;;;;5051150;28;20194;-70
2023/11/03 06:18:48;;;;;;;7.83;4.00;;;9.70;99.90;;;;;;5051738;28;20174;-71
2023/11/03 06:21:13;;;;;;;8.53;4.07;;;9.70;99.90;;;;;;5050802;28;20584;-71
2023/11/03 06:23:39;;;;;;;9.80;3.73;;;9.60;99.90;;;;;;5051084;28;20190;-71
2023/11/03 06:26:05;;;;;;;6.97;4.83;;;9.60;99.90;;;;;;5050766;28;20240;-71
2023/11/03 06:28:31;;;;;;;8.13;4.00;;;9.60;99.90;;;;;;5050818;28;20182;-71
2023/11/03 06:30:57;;;;;;;7.77;4.20;;;9.50;99.90;;;;;;5050808;28;20170;-71
2023/11/03 06:33:23;;;;;;;3.63;3.43;;;9.50;99.90;;;;;;5050669;28;20228;-71
2023/11/03 06:35:50;;;;;;;6.30;3.73;;;9.50;99.90;;;;;;5050671;28;20167;-71
2023/11/03 06:38:16;;;;;;;6.73;3.90;;;9.50;99.90;;;;;;5053327;28;20206;-71
2023/11/03 06:40:41;;;;;;;10.00;4.00;;;9.50;99.90;;;;;;5054703;28;20170;-71
2023/11/03 06:43:07;;;;;;;8.23;4.33;;;9.50;99.90;;;;;;5054551;28;20533;-71
2023/11/03 06:45:33;;;;;;;8.47;4.40;;;9.50;99.90;;;;;;5054052;28;20287;-71
2023/11/03 06:47:59;;;;;;;11.30;4.30;;;9.50;99.90;;;;;;5054970;28;20175;-71
2023/11/03 06:50:25;;;;;;;8.60;3.77;;;9.50;99.90;;;;;;5053720;28;20190;-71
2023/11/03 06:52:51;;;;;;;7.10;4.10;;;9.60;99.90;;;;;;5054373;28;20193;-71
2023/11/03 06:55:19;;;;;;;6.70;4.40;;;9.60;99.90;;;;;;5054095;28;20447;-71
2023/11/03 06:57:47;;;;;;;7.73;4.03;;;9.60;99.90;;;;;;5054515;28;20264;-72
2023/11/03 07:00:13;;;;;;;8.57;4.00;;;9.60;99.90;;;;;;5052648;28;20262;-72
2023/11/03 07:02:40;;;;;;;5.80;4.20;;;9.60;99.90;;;;;;5054170;28;20225;-71
2023/11/03 07:05:06;;;;;;;6.93;4.30;;;9.70;99.90;;;;;;5053852;28;20240;-72
2023/11/03 07:07:32;;;;;;;4.57;4.17;;;9.70;99.90;;;;;;5053976;28;20183;-72
2023/11/03 07:10:00;;;;;;;3.97;3.63;;;9.70;99.90;;;;;;5054106;28;20644;-72
2023/11/03 07:12:26;;;;;;;8.30;4.23;;;9.70;99.90;;;;;;5053566;28;20271;-72
2023/11/03 07:14:52;;;;;;;4.03;3.73;;;9.70;99.90;;;;;;5053831;28;20262;-72
2023/11/03 07:17:18;;;;;;;6.13;4.47;;;9.70;99.90;;;;;;5053456;28;20237;-72
2023/11/03 07:19:44;;;;;;;5.50;3.83;;;9.70;99.90;;;;;;5053929;28;20281;-71
2023/11/03 07:22:10;;;;;;;11.90;4.93;;;9.80;99.90;;;;;;5054007;28;20164;-71
2023/11/03 07:24:35;;;;;;;6.57;3.80;;;9.80;99.90;;;;;;5053677;28;20773;-71
2023/11/03 07:27:02;;;;;;;10.20;5.20;;;9.80;99.90;;;;;;5053062;28;20557;-71
2023/11/03 07:29:27;;;;;;;5.83;4.20;;;9.80;99.90;;;;;;5053908;28;20690;-70
2023/11/03 07:31:53;;;;;;;11.10;3.73;;;9.90;99.90;;;;;;5053791;28;20210;-70
2023/11/03 07:34:19;;;;;;;7.30;3.73;;;9.90;99.90;;;;;;5053482;28;20191;-70
2023/11/03 07:36:45;;;;;;;8.17;3.60;;;10.00;99.90;;;;;;5053011;28;20248;-71
2023/11/03 07:39:11;;;;;;;4.27;3.90;;;10.10;99.90;;;;;;5053637;28;20163;-71
2023/11/03 07:41:37;;;;;;;7.13;3.90;;;10.40;99.90;;;;;;5053240;28;20692;-70
2023/11/03 07:44:03;;;;;;;6.23;3.40;;;10.80;99.90;;;;;;5053367;28;20194;-71
2023/11/03 07:46:30;;;;;;;4.97;3.43;;;11.10;99.90;;;;;;5052951;28;20558;-71
2023/11/03 07:48:57;;;;;;;4.43;3.00;;;11.50;99.90;;;;;;5052242;28;20693;-71
2023/11/03 07:51:24;;;;;;;4.07;2.90;;;11.80;99.90;;;;;;5053092;28;20179;-71
2023/11/03 07:53:50;;;;;;;11.40;3.10;;;12.10;99.90;;;;;;5053266;28;20616;-71
2023/11/03 07:56:16;;;;;;;5.47;3.00;;;12.30;99.90;;;;;;5052782;28;20304;-71
2023/11/03 07:58:42;;;;;;;3.43;2.90;;;12.50;99.90;;;;;;5053371;28;20596;-70
2023/11/03 08:01:09;;;;;;;4.43;2.90;;;12.60;99.90;;;;;;5053049;28;20175;-71
2023/11/03 08:03:35;;;;;;;5.60;3.10;;;12.50;99.90;;;;;;5052869;28;21516;-70
2023/11/03 08:06:01;;;;;;;5.83;2.80;;;12.50;99.90;;;;;;5052951;28;20178;-71
2023/11/03 08:08:26;;;;;;;5.53;2.93;;;12.60;99.90;;;;;;5052619;28;20618;-70
2023/11/03 08:10:52;;;;;;;3.73;2.90;;;12.70;99.90;;;;;;5053066;28;20644;-70
2023/11/03 08:13:22;;;;;;;6.23;3.30;;;12.70;99.90;;;;;;5052734;28;20167;-70
2023/11/03 08:15:50;;;;;;;3.20;3.00;;;12.50;99.90;;;;;;5052733;28;20174;-71
2023/11/03 08:18:16;;;;;;;7.63;3.50;;;12.40;99.90;;;;;;5052728;28;20207;-70
2023/11/03 08:20:42;;;;;;;8.43;3.50;;;12.20;99.90;;;;;;5052898;28;20174;-70
2023/11/03 08:23:09;;;;;;;7.30;3.43;;;12.10;99.90;;;;;;5052505;28;20734;-71
2023/11/03 08:25:35;;;;;;;5.57;3.40;;;11.90;99.90;;;;;;5052063;28;20730;-70
2023/11/03 08:28:01;;;;;;;9.53;3.60;;;11.90;99.90;;;;;;5052321;28;20274;-70
2023/11/03 08:30:27;;;;;;;8.00;3.60;;;12.00;99.90;;;;;;5052385;28;20655;-70
2023/11/03 08:32:53;;;;;;;4.73;3.17;;;12.00;99.90;;;;;;5052616;28;20175;-70
2023/11/03 08:35:20;;;;;;;6.20;3.30;;;12.20;99.90;;;;;;5051966;28;20190;-70
2023/11/03 08:37:52;;;;;;;6.10;3.37;;;12.50;99.90;;;;;;5052710;28;20201;-72
2023/11/03 08:40:20;;;;;;;4.63;3.30;;;12.70;99.90;;;;;;5051592;28;20186;-71
2023/11/03 08:42:46;;;;;;;5.70;3.20;;;12.70;99.90;;;;;;5052728;28;20163;-71
2023/11/03 08:45:16;;;;;;;10.70;3.10;;;12.50;99.90;;;;;;5052022;28;20218;-70
2023/11/03 08:47:41;;;;;;;15.57;3.20;;;12.40;99.90;;;;;;5052504;28;20583;-71
2023/11/03 08:50:09;;;;;;;9.27;3.83;;;12.40;99.90;;;;;;5050833;28;20321;-71
2023/11/03 08:52:35;;;;;;;5.27;3.80;;;12.40;99.90;;;;;;5051496;28;20175;-71
2023/11/03 08:55:06;;;;;;;5.53;3.33;;;12.40;99.90;;;;;;5051962;28;20193;-71
2023/11/03 08:57:33;;;;;;;3.63;3.13;;;12.50;99.90;;;;;;5051770;28;20344;-72
2023/11/03 08:59:59;;;;;;;4.63;3.30;;;12.40;99.90;;;;;;5051646;28;20546;-73
2023/11/03 09:02:24;;;;;;;6.73;3.30;;;12.40;99.90;;;;;;5051623;28;20182;-72
2023/11/03 09:04:50;;;;;;;5.83;3.37;;;12.30;99.90;;;;;;5051920;28;20258;-71
2023/11/03 09:07:16;;;;;;;5.70;3.53;;;12.30;99.90;;;;;;5051468;28;20252;-73
2023/11/03 09:09:41;;;;;;;8.13;3.33;;;12.30;99.90;;;;;;5051942;28;20171;-70
2023/11/03 09:12:07;;;;;;;9.43;2.97;;;12.40;99.90;;;;;;5052070;28;20171;-71
2023/11/03 09:14:33;;;;;;;7.23;4.10;;;12.50;99.90;;;;;;5051418;28;20199;-71
2023/11/03 09:16:59;;;;;;;10.90;3.63;;;12.50;99.90;;;;;;5051118;28;20205;-71
2023/11/03 09:19:24;;;;;;;7.87;3.47;;;12.50;99.90;;;;;;5051406;28;20175;-70
2023/11/03 09:21:50;;;;;;;10.60;3.77;;;12.60;99.90;;;;;;5051588;28;20174;-71
2023/11/03 09:24:15;;;;;;;5.43;3.50;;;12.60;99.90;;;;;;5051099;28;20202;-73
2023/11/03 09:26:41;;;;;;;6.87;3.60;;;12.60;99.90;;;;;;5051221;28;20686;-70
2023/11/03 09:29:06;;;;;;;7.17;3.63;;;12.70;99.90;;;;;;5051527;28;20262;-70
2023/11/03 09:31:32;;;;;;;10.50;4.13;;;12.80;99.90;;;;;;5051374;28;20246;-70
2023/11/03 09:33:58;;;;;;;9.50;3.93;;;12.90;99.90;;;;;;5051434;28;20275;-73
2023/11/03 09:36:24;;;;;;;7.43;3.83;;;12.90;99.90;;;;;;5050938;28;20178;-71
2023/11/03 09:38:49;;;;;;;10.27;4.13;;;13.10;99.90;;;;;;5049648;28;20171;-71
2023/11/03 09:41:15;;;;;;;9.33;3.90;;;13.20;99.90;;;;;;5050910;28;20213;-71
2023/11/03 09:43:42;;;;;;;7.87;3.33;;;13.30;99.90;;;;;;5051538;28;20218;-71
2023/11/03 09:46:08;;;;;;;7.33;3.67;;;13.40;99.90;;;;;;5051168;28;20194;-71
2023/11/03 09:48:34;;;;;;;5.37;3.10;;;13.70;99.90;;;;;;5051107;28;20187;-71
2023/11/03 09:51:02;;;;;;;6.90;3.93;;;13.90;99.90;;;;;;5051094;28;20175;-72
2023/11/03 09:53:31;;;;;;;7.97;3.63;;;14.10;99.90;;;;;;5050707;28;20174;-71
2023/11/03 09:55:59;;;;;;;5.20;3.40;;;14.20;99.90;;;;;;5051022;28;20174;-71
2023/11/03 09:58:25;;;;;;;4.93;3.77;;;14.00;99.90;;;;;;5050983;28;20203;-71
2023/11/03 10:00:51;;;;;;;8.10;3.80;;;13.90;99.90;;;;;;5051121;28;20167;-72
2023/11/03 10:03:17;;;;;;;7.80;3.90;;;13.90;99.90;;;;;;5050739;28;20167;-72
2023/11/03 10:05:43;;;;;;;8.53;3.50;;;14.10;99.90;;;;;;5050715;28;20225;-71
2023/11/03 10:08:17;;;;;;;3.57;2.90;;;14.60;99.90;;;;;;5051013;28;20182;-70
2023/11/03 10:10:45;;;;;;;6.10;3.70;;;15.30;99.90;;;;;;5050966;28;20170;-72
2023/11/03 10:13:11;;;;;;;6.10;3.00;;;15.80;99.90;;;;;;5049925;28;20644;-72
2023/11/03 10:15:40;;;;;;;9.20;2.93;;;16.20;99.90;;;;;;5049670;28;20213;-72
2023/11/03 10:18:07;;;;;;;8.47;2.90;;;16.50;99.90;;;;;;5050979;28;20620;-71
2023/11/03 10:20:33;;;;;;;5.17;2.90;;;16.60;99.90;;;;;;5050869;28;20250;-72
2023/11/03 10:23:00;;;;;;;6.57;2.53;;;16.60;99.90;;;;;;5050879;28;20278;-72
2023/11/03 10:25:26;;;;;;;5.23;2.63;;;16.50;99.90;;;;;;5050279;28;20685;-72
2023/11/03 10:27:54;;;;;;;10.20;2.70;;;16.40;99.90;;;;;;5051282;28;20175;-71
2023/11/03 10:30:21;;;;;;;5.27;2.57;;;16.30;99.90;;;;;;5050941;28;20534;-72
2023/11/03 10:32:47;;;;;;;7.50;2.80;;;16.40;99.90;;;;;;5051064;28;20167;-70
2023/11/03 10:35:13;;;;;;;8.53;2.93;;;16.30;99.90;;;;;;5050567;28;20191;-72
2023/11/03 10:37:40;;;;;;;4.80;2.93;;;16.20;99.90;;;;;;5050646;28;20678;-72
2023/11/03 10:40:13;;;;;;;6.37;3.87;;;16.10;99.90;;;;;;5050597;28;20171;-72
2023/11/03 10:42:47;;;;;;;5.20;3.10;;;16.10;99.90;;;;;;5050697;28;20178;-71
2023/11/03 10:45:15;;;;;;;6.40;2.97;;;16.00;99.90;;;;;;5050387;28;20198;-72
2023/11/03 10:48:10;;;;;;;8.13;3.57;;;15.80;99.90;;;;;;5051264;28;20667;-71
2023/11/03 10:50:43;;;;;;;5.73;2.83;;;15.90;99.90;;;;;;5042038;28;20297;-71
2023/11/03 10:53:27;;;;;;;7.10;3.47;;;15.60;99.90;;;;;;5050857;28;20236;-71
2023/11/03 10:56:07;;;;;;;7.00;3.10;;;15.20;99.90;;;;;;5030882;28;20215;-71
2023/11/03 10:58:33;;;;;;;8.33;3.30;;;15.10;99.90;;;;;;5030854;28;20203;-71
2023/11/03 11:01:26;;;;;;;12.40;3.17;;;15.00;99.90;;;;;;5031377;28;20202;-71
2023/11/03 11:04:12;;;;;;;6.03;3.27;;;15.00;99.90;;;;;;5030931;28;20607;-70
2023/11/03 11:06:47;;;;;;;7.00;3.00;;;14.90;99.90;;;;;;5047389;28;20272;-71
2023/11/03 11:09:25;;;;;;;4.40;3.10;;;14.70;99.90;;;;;;5050709;28;20170;-71
2023/11/03 11:11:51;;;;;;;5.73;3.33;;;14.80;99.90;;;;;;5050453;28;20178;-71
2023/11/03 11:14:24;;;;;;;8.97;2.97;;;15.00;99.90;;;;;;5050631;28;20534;-72
2023/11/03 11:16:55;;;;;;;6.67;3.00;;;15.20;99.90;;;;;;5050570;28;20671;-71
2023/11/03 11:19:43;;;;;;;7.57;3.40;;;15.10;99.90;;;;;;5050256;28;20644;-70
2023/11/03 11:22:13;;;;;;;7.77;3.70;;;15.00;99.90;;;;;;5050699;28;20163;-71
2023/11/03 11:24:40;;;;;;;9.73;3.80;;;14.90;99.90;;;;;;5053479;28;20214;-71
2023/11/03 11:27:18;;;;;;;6.70;4.17;;;14.90;99.90;;;;;;5053490;28;20190;-71
2023/11/03 11:29:43;;;;;;;9.93;3.13;;;14.90;99.90;;;;;;5053997;28;20232;-71
2023/11/03 11:32:11;;;;;;;7.77;3.20;;;14.90;99.90;;;;;;5054059;28;20187;-72
2023/11/03 11:34:38;;;;;;;5.80;3.40;;;15.00;99.90;;;;;;5053760;28;20201;-72
2023/11/03 11:37:27;;;;;;;11.40;3.50;;;15.10;99.90;;;;;;5053571;28;20198;-70
2023/11/03 11:39:57;;;;;;;5.03;3.07;;;14.90;99.90;;;;;;5040418;28;20166;-71
2023/11/03 11:42:31;;;;;;;6.30;3.60;;;14.40;99.90;;;;;;5053316;28;20178;-70
2023/11/03 11:44:58;;;;;;;9.83;3.57;;;14.10;99.90;;;;;;5053385;28;20281;-70
2023/11/03 11:47:25;;;;;;;9.07;3.57;;;13.90;99.90;;;;;;5053221;28;20190;-72
2023/11/03 11:49:55;;;;;;;9.33;3.57;;;13.80;99.90;;;;;;5053655;28;20597;-70
2023/11/03 11:52:25;;;;;;;12.33;3.80;;;13.80;99.90;;;;;;5053096;28;20170;-70
2023/11/03 11:54:52;;;;;;;3.67;3.10;;;13.90;99.90;;;;;;5053589;28;20281;-71
2023/11/03 11:57:18;;;;;;;9.83;3.70;;;14.00;99.90;;;;;;5053187;28;20210;-70
2023/11/03 11:59:47;;;;;;;3.40;3.00;;;14.00;99.90;;;;;;5053217;28;20179;-70
2023/11/03 12:02:13;;;;;;;6.63;3.37;;;14.00;99.90;;;;;;5053133;28;20173;-70
2023/11/03 12:04:41;;;;;;;10.20;4.13;;;14.00;99.90;;;;;;5052993;28;20191;-70
2023/11/03 12:07:08;;;;;;;6.23;3.60;;;14.00;99.90;;;;;;5053010;28;20174;-70
2023/11/03 12:09:37;;;;;;;6.97;3.70;;;14.00;99.90;;;;;;5053224;28;20228;-70
2023/11/03 12:12:03;;;;;;;4.80;3.53;;;14.00;99.90;;;;;;5052865;28;20723;-70
2023/11/03 12:14:29;;;;;;;8.20;3.10;;;14.00;99.90;;;;;;5052765;28;20286;-70
2023/11/03 12:16:55;;;;;;;6.53;3.40;;;13.90;99.90;;;;;;5052902;28;20202;-70
2023/11/03 12:19:20;;;;;;;5.33;3.27;;;13.90;99.90;;;;;;5053159;28;20530;-70
2023/11/03 12:21:52;;;;;;;6.37;2.80;;;13.90;99.90;;;;;;5053029;28;20170;-70
2023/11/03 12:24:18;;;;;;;9.33;3.23;;;14.10;99.90;;;;;;5053029;28;20195;-70
2023/11/03 12:26:44;;;;;;;4.83;3.27;;;14.20;99.90;;;;;;5052528;28;20191;-70
2023/11/03 12:29:31;;;;;;;10.97;3.77;;;14.40;99.90;;;;;;5051510;28;20232;-70
2023/11/03 12:32:01;;;;;;;7.20;3.20;;;14.60;99.90;;;;;;5052646;28;20587;-70
2023/11/03 12:34:27;;;;;;;6.70;3.27;;;14.80;99.90;;;;;;5051926;28;20236;-70
2023/11/03 12:36:55;;;;;;;9.87;3.13;;;14.90;99.90;;;;;;5051889;28;20210;-71
2023/11/03 12:39:22;;;;;;;9.60;3.43;;;15.20;99.90;;;;;;5034303;28;20628;-70
2023/11/03 12:42:04;;;;;;;7.77;3.03;;;15.10;99.90;;;;;;5052509;28;20229;-70
2023/11/03 12:44:31;;;;;;;3.63;3.13;;;15.00;99.90;;;;;;5052092;28;20610;-71
2023/11/03 12:46:57;;;;;;;6.00;3.10;;;14.70;99.90;;;;;;5050536;28;20175;-69